createdAt,value
2017-12-06T00:01:14.801Z,37.18
2017-12-06T00:03:46.799Z,37.11
2017-12-06T00:06:18.298Z,37.07
2017-12-06T00:08:50.609Z,37.06
2017-12-06T00:11:23.944Z,37.02
2017-12-06T00:16:05.837Z,36.96
2017-12-06T00:18:41.838Z,37.01
2017-12-06T00:21:13.495Z,36.96
2017-12-06T00:23:45.498Z,36.95
2017-12-06T00:26:17.054Z,36.92
2017-12-06T00:28:49.200Z,36.90
2017-12-06T00:31:20.853Z,36.90
2017-12-06T00:33:53.161Z,36.89
2017-12-06T00:36:24.491Z,36.93
2017-12-06T00:38:55.654Z,36.95
2017-12-06T00:41:27.688Z,36.91
2017-12-06T00:43:58.909Z,36.93
2017-12-06T00:46:30.436Z,36.97
2017-12-06T00:49:02.604Z,36.99
2017-12-06T00:51:34.015Z,37.00
2017-12-06T00:54:04.984Z,37.03
2017-12-06T00:56:36.467Z,37.05
2017-12-06T00:59:07.876Z,37.02
2017-12-06T01:01:41.032Z,37.03
2017-12-06T01:04:12.588Z,37.04
2017-12-06T01:06:44.193Z,37.05
2017-12-06T01:09:16.638Z,37.03
2017-12-06T01:11:49.866Z,37.03
2017-12-06T01:14:21.492Z,37.04
2017-12-06T01:16:53.385Z,37.04
2017-12-06T01:19:24.888Z,37.03
2017-12-06T01:21:56.073Z,37.01
2017-12-06T01:24:27.626Z,36.95
2017-12-06T01:26:58.840Z,36.92
2017-12-06T01:29:29.817Z,36.89
2017-12-06T01:32:02.231Z,36.81
2017-12-06T01:34:33.459Z,36.80
2017-12-06T01:37:34.467Z,36.75
2017-12-06T01:40:06.700Z,36.77
2017-12-06T01:42:38.432Z,36.72
2017-12-06T01:45:10.463Z,36.66
2017-12-06T01:47:43.167Z,36.59
2017-12-06T01:50:15.071Z,36.60
2017-12-06T01:52:46.864Z,36.58
2017-12-06T01:55:18.833Z,36.59
2017-12-06T01:57:50.352Z,36.61
2017-12-06T02:00:22.474Z,36.61
2017-12-06T02:02:54.383Z,36.65
2017-12-06T02:05:28.398Z,36.63
2017-12-06T02:07:59.867Z,36.64
2017-12-06T02:10:32.195Z,36.63
2017-12-06T02:13:04.099Z,36.70
2017-12-06T02:15:35.667Z,36.73
2017-12-06T02:18:08.263Z,36.74
2017-12-06T02:20:40.244Z,36.76
2017-12-06T02:23:12.382Z,36.76
2017-12-06T02:25:44.987Z,36.76
2017-12-06T02:28:17.442Z,36.74
2017-12-06T02:30:50.276Z,36.78
2017-12-06T02:33:21.906Z,36.81
2017-12-06T02:35:55.617Z,36.84
2017-12-06T02:38:27.321Z,36.84
2017-12-06T02:43:11.299Z,36.84
2017-12-06T02:45:42.875Z,36.87
2017-12-06T02:48:14.191Z,36.81
2017-12-06T02:50:45.649Z,36.74
2017-12-06T02:53:18.313Z,36.72
2017-12-06T02:55:50.899Z,36.67
2017-12-06T02:58:23.681Z,36.62
2017-12-06T03:00:56.527Z,36.60
2017-12-06T03:03:27.776Z,36.60
2017-12-06T03:05:58.988Z,36.57
2017-12-06T03:08:30.420Z,36.52
2017-12-06T03:11:01.638Z,36.49
2017-12-06T03:13:33.332Z,36.48
2017-12-06T03:16:05.142Z,36.48
2017-12-06T03:18:37.359Z,36.47
2017-12-06T03:21:09.744Z,36.47
2017-12-06T03:23:40.875Z,36.47
2017-12-06T03:26:12.185Z,36.48
2017-12-06T03:28:44.070Z,36.48
2017-12-06T03:31:15.135Z,36.39
2017-12-06T03:33:46.624Z,36.44
2017-12-06T03:36:18.261Z,36.50
2017-12-06T03:38:49.818Z,36.50
2017-12-06T03:41:21.231Z,36.50
2017-12-06T03:43:52.722Z,36.46
2017-12-06T03:46:23.966Z,36.48
2017-12-06T03:48:55.495Z,36.55
2017-12-06T03:51:26.612Z,36.55
2017-12-06T03:53:57.983Z,36.56
2017-12-06T03:56:29.595Z,36.58
2017-12-06T03:59:01.621Z,36.57
2017-12-06T04:01:32.772Z,36.57
2017-12-06T04:04:03.926Z,36.53
2017-12-06T04:06:35.902Z,36.54
2017-12-06T04:09:08.595Z,36.51
2017-12-06T04:11:45.352Z,36.47
2017-12-06T04:14:17.262Z,36.45
2017-12-06T04:16:48.436Z,36.44
2017-12-06T04:19:19.620Z,36.48
2017-12-06T04:21:50.964Z,36.42
2017-12-06T04:24:22.268Z,36.38
2017-12-06T04:26:53.341Z,36.38
2017-12-06T04:29:24.487Z,36.36
2017-12-06T04:31:55.709Z,36.33
2017-12-06T04:34:26.778Z,36.28
2017-12-06T04:36:58.343Z,36.22
2017-12-06T04:39:29.625Z,36.21
2017-12-06T04:42:01.718Z,36.16
2017-12-06T04:44:33.050Z,36.14
2017-12-06T04:47:04.181Z,36.14
2017-12-06T04:49:35.501Z,36.15
2017-12-06T04:52:06.892Z,36.13
2017-12-06T04:54:38.696Z,36.17
2017-12-06T04:57:10.355Z,36.17
2017-12-06T04:59:42.037Z,36.21
2017-12-06T05:02:13.409Z,36.19
2017-12-06T05:04:45.991Z,36.17
2017-12-06T05:07:19.726Z,36.18
2017-12-06T05:09:53.959Z,36.22
2017-12-06T05:12:27.127Z,36.22
2017-12-06T05:14:59.102Z,36.26
2017-12-06T05:17:30.776Z,36.20
2017-12-06T05:20:02.891Z,36.23
2017-12-06T05:22:35.086Z,36.26
2017-12-06T05:25:06.869Z,36.27
2017-12-06T05:27:38.763Z,36.28
2017-12-06T05:30:10.268Z,36.28
2017-12-06T05:32:41.719Z,36.31
2017-12-06T05:35:14.174Z,36.31
2017-12-06T05:37:45.817Z,36.29
2017-12-06T05:40:17.597Z,36.30
2017-12-06T05:42:49.366Z,36.32
2017-12-06T05:45:21.712Z,36.33
2017-12-06T05:47:53.320Z,36.23
2017-12-06T05:50:24.796Z,36.19
2017-12-06T05:52:56.182Z,36.18
2017-12-06T05:55:27.576Z,36.06
2017-12-06T05:57:59.372Z,36.08
2017-12-06T06:00:30.927Z,36.05
2017-12-06T06:03:04.438Z,36.02
2017-12-06T06:05:36.635Z,36.04
2017-12-06T06:08:09.306Z,35.98
2017-12-06T06:10:41.585Z,35.94
2017-12-06T06:13:14.036Z,35.94
2017-12-06T06:15:46.247Z,35.91
2017-12-06T06:18:23.495Z,35.95
2017-12-06T06:20:55.384Z,36.01
2017-12-06T06:23:27.113Z,36.02
2017-12-06T06:25:59.486Z,36.06
2017-12-06T06:28:32.979Z,36.09
2017-12-06T06:31:05.508Z,36.11
2017-12-06T06:33:38.384Z,36.09
2017-12-06T06:36:11.773Z,36.14
2017-12-06T06:38:44.983Z,36.13
2017-12-06T06:41:16.566Z,36.12
2017-12-06T06:43:48.788Z,36.12
2017-12-06T06:46:21.961Z,36.13
2017-12-06T06:48:53.967Z,36.20
2017-12-06T06:51:26.399Z,36.24
2017-12-06T06:53:58.463Z,36.26
2017-12-06T06:56:30.950Z,36.26
2017-12-06T06:59:02.963Z,36.24
2017-12-06T07:01:35.248Z,36.20
2017-12-06T07:04:09.728Z,36.13
2017-12-06T07:06:40.905Z,36.09
2017-12-06T07:09:12.229Z,36.05
2017-12-06T07:11:43.979Z,35.99
2017-12-06T07:14:16.663Z,35.93
2017-12-06T07:16:48.700Z,35.78
2017-12-06T07:19:23.060Z,35.72
2017-12-06T07:21:54.387Z,35.67
2017-12-06T07:24:26.266Z,35.66
2017-12-06T07:26:58.233Z,35.66
2017-12-06T07:29:31.004Z,35.62
2017-12-06T07:32:04.995Z,35.64
2017-12-06T07:34:39.008Z,35.63
2017-12-06T07:37:11.207Z,35.60
2017-12-06T07:39:42.699Z,35.59
2017-12-06T07:42:15.096Z,35.60
2017-12-06T07:44:47.199Z,35.65
2017-12-06T07:47:19.615Z,35.61
2017-12-06T07:49:52.345Z,35.58
2017-12-06T07:52:24.892Z,35.66
2017-12-06T07:54:56.682Z,35.69
2017-12-06T07:57:29.574Z,35.71
2017-12-06T08:00:03.104Z,35.67
2017-12-06T08:02:34.721Z,35.75
2017-12-06T08:05:06.188Z,35.77
2017-12-06T08:07:37.588Z,35.83
2017-12-06T08:10:09.827Z,35.82
2017-12-06T08:12:41.126Z,35.87
2017-12-06T08:15:12.748Z,35.87
2017-12-06T08:17:45.112Z,35.90
2017-12-06T08:20:16.628Z,35.92
2017-12-06T08:22:48.482Z,35.85
2017-12-06T08:25:19.808Z,35.86
2017-12-06T08:27:51.149Z,35.80
2017-12-06T08:30:24.526Z,35.81
2017-12-06T08:32:57.753Z,35.76
2017-12-06T08:35:31.505Z,35.74
2017-12-06T08:38:04.347Z,35.69
2017-12-06T08:40:36.943Z,35.61
2017-12-06T08:43:09.117Z,35.53
2017-12-06T08:45:45.093Z,35.50
2017-12-06T08:48:17.018Z,35.43
2017-12-06T08:50:48.198Z,35.41
2017-12-06T08:53:20.829Z,35.40
2017-12-06T08:55:51.992Z,35.39
2017-12-06T08:58:24.580Z,35.35
2017-12-06T09:00:57.625Z,35.31
2017-12-06T09:03:29.394Z,35.28
2017-12-06T09:06:00.515Z,35.29
2017-12-06T09:08:31.568Z,35.33
2017-12-06T09:11:03.060Z,35.36
2017-12-06T09:13:35.705Z,35.32
2017-12-06T09:16:07.052Z,35.32
2017-12-06T09:18:40.326Z,35.38
2017-12-06T09:21:11.730Z,35.41
2017-12-06T09:23:42.821Z,35.42
2017-12-06T09:26:14.074Z,35.38
2017-12-06T09:28:46.545Z,35.31
2017-12-06T09:31:18.778Z,35.26
2017-12-06T09:33:51.821Z,35.31
2017-12-06T09:36:23.983Z,35.32
2017-12-06T09:38:56.059Z,35.43
2017-12-06T09:41:27.848Z,35.43
2017-12-06T09:43:58.965Z,35.37
2017-12-06T09:46:30.038Z,35.31
2017-12-06T09:49:01.763Z,35.33
2017-12-06T09:51:32.849Z,35.32
2017-12-06T09:54:04.616Z,35.34
2017-12-06T09:56:38.545Z,35.24
2017-12-06T09:59:09.589Z,35.24
2017-12-06T10:01:47.393Z,35.16
2017-12-06T10:04:18.493Z,35.13
2017-12-06T10:06:49.625Z,35.05
2017-12-06T10:09:21.189Z,34.96
2017-12-06T10:11:52.275Z,34.87
2017-12-06T10:14:24.170Z,34.87
2017-12-06T10:16:55.177Z,34.81
2017-12-06T10:19:26.553Z,34.78
2017-12-06T10:21:57.664Z,34.77
2017-12-06T10:24:29.262Z,34.79
2017-12-06T10:27:00.300Z,34.82
2017-12-06T10:29:31.930Z,34.84
2017-12-06T10:32:03.857Z,34.83
2017-12-06T10:34:35.255Z,34.89
2017-12-06T10:37:08.039Z,34.90
2017-12-06T10:39:39.444Z,34.89
2017-12-06T10:42:10.801Z,34.93
2017-12-06T10:44:41.841Z,34.89
2017-12-06T10:47:14.620Z,34.95
2017-12-06T10:49:45.838Z,35.03
2017-12-06T10:52:17.689Z,35.03
2017-12-06T10:54:48.973Z,35.04
2017-12-06T10:57:20.945Z,35.08
2017-12-06T10:59:52.437Z,35.13
2017-12-06T11:02:24.507Z,35.17
2017-12-06T11:04:56.670Z,35.18
2017-12-06T11:07:29.691Z,35.28
2017-12-06T11:10:01.044Z,35.29
2017-12-06T11:12:34.508Z,35.22
2017-12-06T11:15:09.374Z,35.23
2017-12-06T11:17:42.496Z,35.30
2017-12-06T11:20:16.087Z,35.29
2017-12-06T11:22:50.706Z,35.31
2017-12-06T11:25:24.093Z,35.28
2017-12-06T11:27:57.088Z,35.25
2017-12-06T11:30:28.481Z,35.22
2017-12-06T11:33:00.511Z,35.10
2017-12-06T11:35:32.535Z,35.05
2017-12-06T11:38:04.183Z,34.96
2017-12-06T11:40:35.492Z,34.90
2017-12-06T11:43:07.072Z,34.87
2017-12-06T11:45:38.908Z,34.88
2017-12-06T11:48:10.108Z,34.86
2017-12-06T11:50:41.161Z,34.86
2017-12-06T11:53:12.637Z,34.91
2017-12-06T11:55:44.015Z,34.91
2017-12-06T11:58:15.182Z,34.91
2017-12-06T12:00:47.064Z,34.91
2017-12-06T12:03:18.450Z,34.95
2017-12-06T12:05:50.340Z,34.97
2017-12-06T12:08:21.379Z,35.03
2017-12-06T12:10:52.944Z,35.11
2017-12-06T12:13:24.209Z,35.15
2017-12-06T12:15:55.862Z,35.22
2017-12-06T12:18:27.152Z,35.25
2017-12-06T12:20:58.677Z,35.28
2017-12-06T12:23:30.622Z,35.33
2017-12-06T12:26:02.020Z,35.34
2017-12-06T12:28:33.958Z,35.35
2017-12-06T12:31:05.835Z,35.39
2017-12-06T12:33:37.210Z,35.48
2017-12-06T12:36:08.907Z,35.52
2017-12-06T12:38:41.029Z,35.54
2017-12-06T12:41:12.868Z,35.55
2017-12-06T12:43:44.925Z,35.56
2017-12-06T12:46:17.310Z,35.59
2017-12-06T12:48:49.174Z,35.53
2017-12-06T12:51:21.594Z,35.48
2017-12-06T12:53:55.111Z,35.57
2017-12-06T12:56:29.977Z,35.58
2017-12-06T12:59:01.734Z,35.62
2017-12-06T13:01:37.224Z,35.63
2017-12-06T13:04:11.633Z,35.63
2017-12-06T13:06:44.024Z,35.56
2017-12-06T13:09:17.119Z,35.54
2017-12-06T13:11:51.617Z,35.51
2017-12-06T13:14:26.111Z,35.49
2017-12-06T13:16:58.703Z,35.49
2017-12-06T13:19:33.399Z,35.51
2017-12-06T13:22:07.613Z,35.54
2017-12-06T13:24:42.473Z,35.54
2017-12-06T13:27:17.785Z,35.53
2017-12-06T13:29:54.759Z,35.54
2017-12-06T13:32:27.382Z,35.58
2017-12-06T13:35:00.510Z,35.62
2017-12-06T13:37:33.172Z,35.74
2017-12-06T13:40:06.898Z,35.74
2017-12-06T13:42:39.549Z,35.43
2017-12-06T13:45:14.517Z,35.16
2017-12-06T13:47:48.209Z,34.91
2017-12-06T13:50:23.226Z,34.57
2017-12-06T13:52:56.060Z,34.38
2017-12-06T13:55:32.982Z,34.22
2017-12-06T13:58:05.885Z,34.05
2017-12-06T14:00:40.932Z,33.95
2017-12-06T14:03:13.133Z,33.92
2017-12-06T14:05:47.018Z,33.96
2017-12-06T14:08:20.356Z,34.02
2017-12-06T14:10:53.520Z,34.05
2017-12-06T14:13:26.093Z,34.23
2017-12-06T14:16:00.083Z,34.35
2017-12-06T14:18:32.510Z,34.43
2017-12-06T14:21:05.547Z,34.44
2017-12-06T14:23:38.325Z,34.49
2017-12-06T14:26:10.756Z,34.59
2017-12-06T14:28:42.664Z,34.61
2017-12-06T14:31:15.110Z,34.65
2017-12-06T14:33:47.245Z,34.95
2017-12-06T14:36:21.018Z,35.10
2017-12-06T14:38:56.086Z,35.18
2017-12-06T14:41:28.596Z,35.20
2017-12-06T14:44:03.190Z,35.19
2017-12-06T14:46:35.358Z,35.20
2017-12-06T14:49:07.444Z,35.19
2017-12-06T14:51:40.858Z,35.25
2017-12-06T14:54:15.182Z,35.28
2017-12-06T14:56:49.076Z,35.33
2017-12-06T14:59:23.832Z,35.34
2017-12-06T15:01:56.583Z,35.36
2017-12-06T15:04:35.020Z,35.32
2017-12-06T15:07:07.937Z,35.39
2017-12-06T15:09:51.529Z,35.45
2017-12-06T15:12:25.020Z,35.60
2017-12-06T15:15:07.028Z,35.63
2017-12-06T15:17:44.103Z,35.65
2017-12-06T15:20:20.870Z,35.62
2017-12-06T15:22:55.767Z,35.60
2017-12-06T15:25:30.373Z,35.59
2017-12-06T15:28:08.270Z,35.60
2017-12-06T15:30:50.817Z,35.63
2017-12-06T15:33:30.141Z,35.74
2017-12-06T15:36:04.742Z,35.88
2017-12-06T15:38:41.101Z,35.91
2017-12-06T15:41:16.131Z,35.88
2017-12-06T15:43:50.258Z,35.89
2017-12-06T15:46:24.683Z,35.87
2017-12-06T15:48:58.919Z,35.85
2017-12-06T15:51:31.573Z,35.94
2017-12-06T15:54:03.590Z,36.09
2017-12-06T15:56:35.316Z,36.08
2017-12-06T15:59:07.299Z,36.17
2017-12-06T16:01:39.225Z,36.16
2017-12-06T16:04:14.092Z,36.11
2017-12-06T16:06:49.553Z,36.07
2017-12-06T16:09:22.515Z,36.07
2017-12-06T16:11:55.184Z,36.07
2017-12-06T16:14:28.203Z,36.14
2017-12-06T16:17:00.361Z,36.17
2017-12-06T16:19:37.181Z,36.19
2017-12-06T16:22:10.667Z,36.16
2017-12-06T16:24:46.694Z,36.21
2017-12-06T16:27:21.404Z,36.12
2017-12-06T16:29:56.585Z,36.16
2017-12-06T16:32:29.950Z,36.11
2017-12-06T16:35:10.687Z,36.07
2017-12-06T16:37:43.790Z,36.15
2017-12-06T16:40:18.265Z,36.21
2017-12-06T16:42:50.783Z,36.31
2017-12-06T16:45:24.243Z,36.35
2017-12-06T16:47:57.051Z,36.37
2017-12-06T16:50:29.081Z,36.41
2017-12-06T16:53:02.527Z,36.46
2017-12-06T16:55:35.064Z,36.36
2017-12-06T16:58:09.425Z,36.28
2017-12-06T17:00:43.178Z,36.32
2017-12-06T17:03:15.625Z,36.40
2017-12-06T17:05:49.163Z,36.65
2017-12-06T17:08:21.709Z,36.67
2017-12-06T17:10:53.513Z,36.71
2017-12-06T17:13:25.440Z,36.79
2017-12-06T17:16:01.110Z,36.91
2017-12-06T17:32:58.397Z,37.44
2017-12-06T17:57:04.860Z,37.38
2017-12-06T17:59:39.330Z,37.57
2017-12-06T18:02:11.687Z,37.67
2017-12-06T18:04:44.336Z,37.69
2017-12-06T18:07:15.964Z,37.87
2017-12-06T18:09:47.614Z,38.27
2017-12-06T18:12:20.065Z,38.45
2017-12-06T18:15:54.084Z,38.64
2017-12-06T18:18:26.667Z,39.10
2017-12-06T18:20:59.396Z,39.22
2017-12-06T18:23:35.423Z,39.29
2017-12-06T18:26:08.329Z,39.56
2017-12-06T18:28:40.661Z,39.69
2017-12-06T18:31:12.349Z,39.70
2017-12-06T18:33:44.526Z,39.79
2017-12-06T18:36:16.785Z,39.92
2017-12-06T18:38:52.764Z,40.03
2017-12-06T18:41:25.659Z,39.96
2017-12-06T18:43:59.671Z,40.02
2017-12-06T18:46:34.401Z,39.97
2017-12-06T18:49:09.734Z,39.83
2017-12-06T18:51:42.390Z,39.92
2017-12-06T18:54:31.820Z,39.89
2017-12-06T18:57:10.121Z,39.77
2017-12-06T18:59:50.349Z,39.91
2017-12-06T19:02:36.488Z,40.76
2017-12-06T19:05:15.097Z,41.22
2017-12-06T19:07:56.203Z,41.55
2017-12-06T19:10:42.555Z,42.28
2017-12-06T19:13:24.512Z,43.02
2017-12-06T19:17:15.600Z,43.43
2017-12-06T19:20:06.946Z,43.72
2017-12-06T19:22:54.862Z,44.05
2017-12-06T19:26:03.594Z,44.30
2017-12-06T19:29:59.008Z,44.07
2017-12-06T19:35:39.634Z,43.62
2017-12-06T19:38:26.525Z,42.70
2017-12-06T19:41:28.776Z,42.05
2017-12-06T19:44:20.710Z,41.60
2017-12-06T19:47:07.214Z,41.31
2017-12-06T19:49:40.957Z,41.04
2017-12-06T19:52:27.942Z,40.72
2017-12-06T20:00:50.474Z,40.81
2017-12-06T20:03:30.697Z,40.58
2017-12-06T20:06:03.971Z,40.28
2017-12-06T20:15:14.808Z,40.18
2017-12-06T20:17:47.404Z,40.18
2017-12-06T20:20:26.000Z,40.44
2017-12-06T20:23:13.891Z,40.82
2017-12-06T20:25:50.159Z,41.03
2017-12-06T20:28:23.357Z,41.19
2017-12-06T20:30:55.696Z,41.38
2017-12-06T20:33:27.828Z,41.33
2017-12-06T20:35:59.421Z,41.30
2017-12-06T20:38:30.698Z,41.29
2017-12-06T20:41:04.341Z,41.24
2017-12-06T20:43:39.610Z,41.34
2017-12-06T20:46:11.671Z,41.46
2017-12-06T20:48:45.602Z,41.30
2017-12-06T20:51:17.850Z,41.05
2017-12-06T20:53:49.279Z,40.89
2017-12-06T20:56:20.484Z,40.95
2017-12-06T20:58:52.311Z,40.96
2017-12-06T21:01:23.532Z,41.09
2017-12-06T21:03:55.258Z,41.09
2017-12-06T21:06:26.759Z,41.10
2017-12-06T21:08:57.991Z,40.94
2017-12-06T21:11:30.474Z,40.86
2017-12-06T21:14:03.174Z,40.76
2017-12-06T21:16:36.027Z,40.73
2017-12-06T21:19:12.080Z,40.63
2017-12-06T21:21:44.920Z,40.75
2017-12-06T21:24:17.921Z,40.88
2017-12-06T21:26:52.542Z,40.76
2017-12-06T21:29:26.518Z,40.78
2017-12-06T21:37:41.973Z,40.64
2017-12-06T23:11:53.884Z,40.52
2017-12-06T23:14:36.582Z,40.52
2017-12-06T23:17:09.244Z,40.38
2017-12-06T23:19:41.991Z,40.13
2017-12-06T23:22:16.340Z,40.16
2017-12-06T23:27:27.304Z,40.40
2017-12-06T23:30:01.401Z,40.42
2017-12-06T23:32:33.927Z,40.22
2017-12-06T23:35:05.970Z,40.18
2017-12-06T23:37:38.723Z,40.29
2017-12-06T23:40:10.639Z,40.08
2017-12-06T23:42:43.489Z,40.06
2017-12-06T23:45:15.342Z,40.12
2017-12-06T23:47:48.264Z,40.14
2017-12-06T23:50:23.383Z,40.12
2017-12-06T23:52:59.178Z,39.97
2017-12-06T23:55:36.294Z,39.89
2017-12-06T23:58:08.573Z,39.80
